Time;durP1;ratioP1;P1;durP2;ratioP2;P2;SDS_P1;SDS_P2;PMS_P1;PMS_P2;Temp;Humidity;BMP_temperature;BMP_pressure;BME280_temperature;BME280_humidity;BME280_pressure;Samples;Min_cycle;Max_cycle;Signal;HPM_P1;HPM_P2
2022/04/18 00:01:19;;;;;;;1.15;0.65;;;22.00;42.90;;;;;;4994435;28;20046;-64
2022/04/18 00:03:45;;;;;;;1.02;0.60;;;22.00;42.90;;;;;;4984788;28;20156;-64
2022/04/18 00:06:10;;;;;;;0.82;0.65;;;21.90;42.80;;;;;;4993509;28;20612;-64
2022/04/18 00:08:36;;;;;;;1.17;0.68;;;22.00;42.80;;;;;;4994349;28;20506;-64
2022/04/18 00:11:02;;;;;;;0.85;0.63;;;22.00;42.80;;;;;;4994523;28;20034;-64
2022/04/18 00:13:28;;;;;;;0.60;0.60;;;21.90;42.70;;;;;;4992682;28;20026;-65
2022/04/18 00:15:53;;;;;;;0.80;0.80;;;22.00;42.80;;;;;;4993439;28;20095;-64
2022/04/18 00:18:19;;;;;;;1.05;0.70;;;22.00;42.90;;;;;;4991818;28;20033;-64
2022/04/18 00:20:45;;;;;;;0.93;0.80;;;22.00;42.70;;;;;;4995075;28;20449;-64
2022/04/18 00:23:10;;;;;;;0.73;0.70;;;22.00;42.70;;;;;;4989228;28;20068;-64
2022/04/18 00:25:36;;;;;;;0.90;0.63;;;22.00;42.70;;;;;;4992553;28;20041;-63
2022/04/18 00:28:01;;;;;;;1.20;0.60;;;22.00;42.60;;;;;;4992775;28;20120;-64
2022/04/18 00:30:27;;;;;;;1.35;0.85;;;22.00;42.60;;;;;;4992160;28;20123;-64
2022/04/18 00:32:52;;;;;;;0.80;0.60;;;22.00;42.60;;;;;;4989261;28;20064;-64
2022/04/18 00:35:18;;;;;;;0.60;0.50;;;22.00;42.50;;;;;;4994051;28;20034;-64
2022/04/18 00:37:44;;;;;;;1.25;0.75;;;22.00;42.50;;;;;;4992830;28;20080;-64
2022/04/18 00:40:12;;;;;;;0.90;0.60;;;22.00;42.50;;;;;;4989955;28;20022;-65
2022/04/18 00:42:42;;;;;;;0.82;0.70;;;22.00;42.50;;;;;;4994611;28;20036;-64
2022/04/18 00:45:08;;;;;;;1.25;0.80;;;22.00;42.40;;;;;;4995229;28;20046;-67
2022/04/18 00:47:33;;;;;;;1.75;0.60;;;22.00;42.40;;;;;;4993173;28;20069;-64
2022/04/18 00:49:59;;;;;;;0.63;0.60;;;22.00;42.40;;;;;;4995777;28;20034;-64
2022/04/18 00:52:26;;;;;;;2.60;1.10;;;22.00;42.40;;;;;;4994695;28;20100;-64
2022/04/18 00:54:55;;;;;;;1.05;0.70;;;22.00;42.40;;;;;;4995754;28;20337;-64
2022/04/18 00:57:23;;;;;;;1.08;0.70;;;21.90;42.30;;;;;;4994882;28;20040;-64
2022/04/18 00:59:48;;;;;;;1.20;0.80;;;22.00;42.30;;;;;;4996062;28;20169;-61
2022/04/18 01:02:14;;;;;;;0.70;0.70;;;22.00;42.30;;;;;;4991795;28;20137;-64
2022/04/18 01:04:40;;;;;;;1.02;0.70;;;21.90;42.30;;;;;;4993332;28;20030;-64
2022/04/18 01:07:06;;;;;;;0.50;0.50;;;21.90;42.30;;;;;;4994049;28;20112;-64
2022/04/18 01:09:33;;;;;;;0.98;0.70;;;22.00;42.30;;;;;;4995464;28;20475;-64
2022/04/18 01:11:59;;;;;;;0.57;0.57;;;21.90;42.20;;;;;;4989198;28;20129;-64
2022/04/18 01:14:24;;;;;;;1.05;0.60;;;21.90;42.30;;;;;;4994999;28;20129;-61
2022/04/18 01:16:50;;;;;;;1.83;0.70;;;21.90;42.30;;;;;;4990182;28;20108;-64
2022/04/18 01:19:16;;;;;;;0.77;0.70;;;21.90;42.20;;;;;;4992256;28;20068;-64
2022/04/18 01:21:42;;;;;;;1.10;0.70;;;21.90;42.20;;;;;;4990700;28;20486;-60
2022/04/18 01:28:58;;;;;;;0.70;0.57;;;21.90;42.20;;;;;;4995894;28;20640;-64
2022/04/18 01:29:37;;;;;;;0.98;0.63;;;21.90;42.20;;;;;;4994655;28;20045;-62
2022/04/18 01:32:03;;;;;;;1.02;0.75;;;21.90;42.20;;;;;;4992244;28;20042;-64
2022/04/18 01:34:29;;;;;;;0.60;0.60;;;21.90;42.10;;;;;;4993546;28;20029;-65
2022/04/18 01:36:54;;;;;;;1.17;0.70;;;21.90;42.20;;;;;;4993319;28;20037;-64
2022/04/18 01:39:20;;;;;;;0.75;0.70;;;21.90;42.10;;;;;;4995290;28;20069;-64
2022/04/18 01:41:46;;;;;;;0.95;0.70;;;21.90;42.10;;;;;;4993789;28;20041;-64
2022/04/18 01:44:12;;;;;;;0.98;0.63;;;21.90;42.10;;;;;;4995172;28;20678;-60
2022/04/18 01:46:38;;;;;;;0.95;0.70;;;21.90;42.10;;;;;;4993204;28;20121;-64
2022/04/18 01:49:04;;;;;;;0.90;0.60;;;21.80;42.10;;;;;;4994273;28;20041;-64
2022/04/18 01:51:29;;;;;;;1.00;0.80;;;21.80;42.10;;;;;;4992743;28;20126;-64
2022/04/18 01:53:55;;;;;;;0.85;0.60;;;21.90;42.10;;;;;;4995238;28;20041;-64
2022/04/18 01:56:21;;;;;;;0.82;0.70;;;21.80;42.00;;;;;;4990583;28;20033;-64
2022/04/18 01:58:46;;;;;;;0.77;0.65;;;21.80;42.00;;;;;;4995002;28;20048;-60
2022/04/18 02:01:12;;;;;;;0.80;0.70;;;21.80;42.00;;;;;;4991115;28;20152;-63
2022/04/18 02:03:43;;;;;;;0.82;0.70;;;21.80;42.00;;;;;;4985718;28;20127;-64
2022/04/18 02:06:10;;;;;;;0.90;0.70;;;21.80;42.00;;;;;;4994193;28;20060;-64
2022/04/18 02:08:36;;;;;;;0.70;0.60;;;21.80;42.00;;;;;;4992753;28;20038;-65
2022/04/18 02:11:04;;;;;;;1.35;0.75;;;21.80;42.00;;;;;;4993752;28;20037;-63
2022/04/18 02:13:30;;;;;;;0.80;0.70;;;21.80;42.00;;;;;;4998648;28;20042;-61
2022/04/18 02:15:57;;;;;;;1.27;0.70;;;21.80;42.00;;;;;;4997671;28;20029;-64
2022/04/18 02:18:23;;;;;;;1.10;0.77;;;21.80;42.00;;;;;;4996543;28;20026;-61
2022/04/18 02:20:49;;;;;;;1.10;0.70;;;21.80;42.00;;;;;;4997090;28;20075;-64
2022/04/18 02:23:15;;;;;;;0.57;0.57;;;21.80;42.00;;;;;;4997295;28;20030;-61
2022/04/18 02:25:41;;;;;;;0.93;0.70;;;21.80;42.00;;;;;;4997029;28;20057;-64
2022/04/18 02:28:06;;;;;;;0.90;0.70;;;21.80;42.00;;;;;;4998514;28;20095;-64
2022/04/18 02:30:32;;;;;;;0.98;0.75;;;21.80;42.00;;;;;;4996979;28;20549;-60
2022/04/18 02:32:59;;;;;;;0.88;0.68;;;21.80;42.00;;;;;;4993802;28;20520;-64
2022/04/18 02:35:25;;;;;;;1.00;0.70;;;21.70;41.90;;;;;;4995670;28;20038;-66
2022/04/18 02:37:52;;;;;;;0.73;0.55;;;21.80;42.00;;;;;;4997097;28;20394;-66
2022/04/18 02:40:19;;;;;;;0.90;0.80;;;21.70;41.90;;;;;;5013621;28;20057;-64
2022/04/18 02:42:45;;;;;;;0.75;0.60;;;21.70;41.90;;;;;;4994767;28;20037;-64
2022/04/18 02:45:12;;;;;;;0.85;0.65;;;21.70;41.90;;;;;;4995075;28;20354;-64
2022/04/18 02:47:38;;;;;;;1.10;0.60;;;21.70;41.90;;;;;;4993327;28;20041;-64
2022/04/18 02:50:05;;;;;;;1.58;0.70;;;21.70;41.90;;;;;;4997178;28;20049;-64
2022/04/18 02:52:31;;;;;;;1.13;0.70;;;21.70;41.90;;;;;;5008844;28;20037;-63
2022/04/18 02:54:57;;;;;;;0.93;0.70;;;21.70;41.90;;;;;;4996442;28;20032;-61
2022/04/18 02:57:22;;;;;;;1.00;0.70;;;21.70;41.90;;;;;;4995192;28;20517;-65
2022/04/18 02:59:48;;;;;;;0.73;0.70;;;21.70;41.80;;;;;;4998582;28;20038;-62
2022/04/18 03:02:13;;;;;;;1.23;0.88;;;21.70;41.90;;;;;;4992587;28;20197;-63
2022/04/18 03:04:39;;;;;;;0.60;0.60;;;21.70;41.80;;;;;;4997553;28;20037;-60
2022/04/18 03:07:05;;;;;;;0.80;0.70;;;21.70;41.90;;;;;;4992689;28;20057;-64
2022/04/18 03:09:33;;;;;;;0.60;0.60;;;21.70;41.80;;;;;;4997016;28;20486;-60
2022/04/18 03:12:01;;;;;;;0.70;0.60;;;21.70;41.80;;;;;;4995391;28;20092;-62
2022/04/18 03:14:28;;;;;;;0.60;0.57;;;21.60;41.80;;;;;;4995019;28;20099;-64
2022/04/18 03:16:53;;;;;;;0.65;0.65;;;21.60;41.80;;;;;;4991492;28;20050;-64
2022/04/18 03:19:19;;;;;;;0.80;0.70;;;21.70;41.90;;;;;;4994262;28;20106;-64
2022/04/18 03:21:45;;;;;;;0.60;0.60;;;21.70;41.80;;;;;;4992754;28;20068;-62
2022/04/18 03:24:10;;;;;;;0.82;0.70;;;21.70;41.80;;;;;;4994845;28;20030;-64
2022/04/18 03:26:36;;;;;;;0.90;0.80;;;21.70;41.90;;;;;;4992089;28;20125;-64
2022/04/18 03:29:01;;;;;;;0.82;0.68;;;21.60;41.80;;;;;;4994483;28;20048;-60
2022/04/18 03:31:27;;;;;;;0.90;0.63;;;21.60;41.80;;;;;;4991691;28;20052;-64
2022/04/18 03:33:53;;;;;;;0.90;0.70;;;21.60;41.80;;;;;;4994322;28;20042;-64
2022/04/18 03:41:47;;;;;;;0.65;0.63;;;21.60;41.80;;;;;;4992501;28;20072;-62
2022/04/18 03:44:13;;;;;;;0.80;0.70;;;21.60;42.00;;;;;;4993499;28;20022;-64
2022/04/18 03:46:38;;;;;;;0.60;0.50;;;21.60;41.80;;;;;;4995039;28;20498;-64
2022/04/18 03:49:04;;;;;;;0.82;0.60;;;21.60;41.80;;;;;;4991889;28;20053;-65
2022/04/18 03:51:29;;;;;;;1.00;0.80;;;21.60;41.80;;;;;;4993414;28;20053;-64
2022/04/18 03:53:55;;;;;;;0.80;0.70;;;21.60;42.20;;;;;;4993131;28;20030;-64
2022/04/18 03:56:21;;;;;;;0.90;0.65;;;21.60;41.80;;;;;;4995716;28;20038;-60
2022/04/18 03:58:46;;;;;;;0.80;0.70;;;21.60;41.80;;;;;;4994487;28;20025;-64
2022/04/18 04:01:12;;;;;;;0.73;0.65;;;21.60;41.80;;;;;;4992634;28;20037;-64
2022/04/18 04:03:37;;;;;;;0.63;0.63;;;21.60;41.80;;;;;;4993364;28;20086;-61
2022/04/18 04:06:03;;;;;;;0.50;0.50;;;21.60;41.80;;;;;;4995042;28;20069;-64
2022/04/18 04:08:29;;;;;;;1.08;0.60;;;21.60;41.80;;;;;;4992681;28;20367;-64
2022/04/18 04:10:54;;;;;;;0.70;0.60;;;21.50;41.70;;;;;;4994117;28;20061;-65
2022/04/18 04:13:20;;;;;;;0.90;0.52;;;21.60;41.80;;;;;;4994729;28;20045;-64
2022/04/18 04:15:46;;;;;;;0.98;0.70;;;21.50;41.70;;;;;;4991995;28;20405;-64
2022/04/18 04:18:11;;;;;;;0.70;0.60;;;21.50;41.70;;;;;;4991023;28;20043;-64
2022/04/18 04:20:37;;;;;;;0.60;0.60;;;21.50;41.70;;;;;;4993052;28;20030;-64
2022/04/18 04:23:03;;;;;;;1.20;0.60;;;21.60;41.80;;;;;;4992584;28;20105;-64
2022/04/18 04:25:29;;;;;;;0.80;0.60;;;21.50;41.70;;;;;;4992799;28;20430;-64
2022/04/18 04:27:54;;;;;;;0.70;0.60;;;21.50;41.70;;;;;;4993456;28;20496;-64
2022/04/18 04:30:20;;;;;;;0.77;0.60;;;21.50;41.70;;;;;;4992851;28;20125;-64
2022/04/18 04:32:48;;;;;;;0.85;0.63;;;21.50;41.70;;;;;;4991324;28;20034;-65
2022/04/18 04:35:14;;;;;;;0.65;0.60;;;21.50;41.70;;;;;;4994025;28;20107;-64
2022/04/18 04:37:40;;;;;;;0.82;0.60;;;21.50;41.70;;;;;;4992917;28;20116;-64
2022/04/18 04:40:06;;;;;;;0.70;0.70;;;21.50;41.70;;;;;;4993702;28;20113;-63
2022/04/18 04:42:32;;;;;;;0.75;0.70;;;21.50;41.70;;;;;;4994534;28;20615;-66
2022/04/18 04:44:57;;;;;;;0.60;0.60;;;21.50;41.70;;;;;;4992550;28;20026;-66
2022/04/18 04:47:23;;;;;;;0.90;0.60;;;21.50;41.70;;;;;;4992802;28;20030;-64
2022/04/18 04:49:49;;;;;;;0.60;0.57;;;21.50;41.70;;;;;;4991286;28;20532;-62
2022/04/18 04:52:15;;;;;;;0.82;0.60;;;21.50;41.70;;;;;;4990785;28;20035;-65
2022/04/18 04:54:40;;;;;;;0.68;0.68;;;21.50;41.70;;;;;;4994055;28;20057;-64
2022/04/18 04:57:06;;;;;;;1.70;0.70;;;21.50;41.70;;;;;;4993603;28;20628;-65
2022/04/18 04:59:31;;;;;;;0.75;0.65;;;21.50;41.70;;;;;;4995108;28;20483;-65
2022/04/18 05:01:57;;;;;;;0.60;0.60;;;21.50;41.70;;;;;;4990988;28;20049;-66
2022/04/18 05:04:25;;;;;;;0.60;0.60;;;21.40;41.70;;;;;;4993058;28;20025;-65
2022/04/18 05:06:52;;;;;;;0.60;0.52;;;21.50;41.70;;;;;;4990345;28;20034;-65
2022/04/18 05:09:17;;;;;;;0.95;0.75;;;21.50;41.70;;;;;;5022441;28;20036;-63
2022/04/18 05:11:44;;;;;;;1.00;0.70;;;21.40;41.70;;;;;;4994561;28;20042;-65
2022/04/18 05:14:10;;;;;;;0.95;0.70;;;21.40;41.70;;;;;;4993328;28;20131;-61
2022/04/18 05:16:35;;;;;;;0.82;0.70;;;21.50;41.70;;;;;;4993270;28;20191;-63
2022/04/18 05:19:01;;;;;;;1.02;0.70;;;21.40;41.70;;;;;;4990307;28;20029;-62
2022/04/18 05:21:26;;;;;;;0.60;0.60;;;21.40;41.70;;;;;;4991917;28;20030;-65
2022/04/18 05:23:52;;;;;;;0.60;0.52;;;21.40;41.70;;;;;;4992990;28;20538;-64
2022/04/18 05:26:18;;;;;;;0.60;0.60;;;21.40;41.60;;;;;;4991305;28;20121;-64
2022/04/18 05:28:44;;;;;;;0.68;0.60;;;21.40;41.70;;;;;;4994342;28;20448;-66
2022/04/18 05:31:09;;;;;;;0.68;0.65;;;21.40;41.70;;;;;;4992141;28;20037;-63
2022/04/18 05:33:35;;;;;;;0.82;0.63;;;21.40;41.70;;;;;;4993248;28;20366;-60
2022/04/18 05:36:00;;;;;;;0.60;0.60;;;21.40;41.70;;;;;;4990931;28;20049;-62
2022/04/18 05:38:26;;;;;;;0.60;0.57;;;21.40;41.70;;;;;;4993735;28;20049;-60
2022/04/18 05:40:52;;;;;;;0.65;0.50;;;21.40;41.70;;;;;;4993569;28;20568;-66
2022/04/18 05:43:17;;;;;;;0.95;0.68;;;21.40;41.70;;;;;;4994821;28;20087;-65
2022/04/18 05:45:43;;;;;;;0.70;0.60;;;21.40;41.70;;;;;;4992159;28;20026;-62
2022/04/18 05:48:09;;;;;;;0.63;0.60;;;21.40;41.70;;;;;;4996997;28;20029;-62
2022/04/18 05:50:35;;;;;;;0.70;0.60;;;21.40;41.70;;;;;;4997160;28;20033;-65
2022/04/18 05:53:01;;;;;;;0.70;0.60;;;21.40;41.70;;;;;;4997031;28;20526;-66
2022/04/18 05:55:26;;;;;;;0.80;0.60;;;21.40;41.70;;;;;;4995364;28;20100;-65
2022/04/18 05:57:52;;;;;;;0.65;0.65;;;21.40;41.60;;;;;;4997586;28;20125;-66
2022/04/18 06:00:21;;;;;;;1.20;0.60;;;21.40;41.60;;;;;;4995403;28;20026;-66
2022/04/18 06:02:47;;;;;;;0.82;0.65;;;21.40;41.70;;;;;;4993714;28;20457;-66
2022/04/18 06:05:12;;;;;;;0.60;0.60;;;21.40;41.70;;;;;;4995948;28;20033;-66
2022/04/18 06:07:45;;;;;;;0.70;0.60;;;21.40;41.70;;;;;;4992385;28;20105;-64
2022/04/18 06:10:10;;;;;;;0.60;0.60;;;21.40;41.70;;;;;;4995926;28;20649;-64
2022/04/18 06:12:36;;;;;;;0.60;0.52;;;21.40;41.70;;;;;;4995874;28;20105;-64
2022/04/18 06:15:02;;;;;;;0.60;0.60;;;21.40;41.70;;;;;;4995655;28;20466;-64
2022/04/18 06:17:27;;;;;;;1.38;0.70;;;21.40;41.70;;;;;;4996651;28;20868;-62
2022/04/18 06:19:53;;;;;;;0.80;0.60;;;21.30;41.60;;;;;;4995268;28;20030;-64
2022/04/18 06:22:18;;;;;;;0.60;0.60;;;21.30;41.60;;;;;;4994392;28;20037;-64
2022/04/18 06:24:44;;;;;;;0.60;0.60;;;21.30;41.60;;;;;;4996065;28;20105;-64
2022/04/18 06:27:10;;;;;;;0.85;0.70;;;21.30;41.60;;;;;;4994777;28;20040;-65
2022/04/18 06:29:37;;;;;;;1.20;0.80;;;21.30;41.60;;;;;;4995606;28;20065;-65
2022/04/18 06:32:03;;;;;;;0.90;0.70;;;21.30;41.60;;;;;;4992451;28;20680;-63
2022/04/18 06:34:30;;;;;;;0.52;0.52;;;21.30;41.60;;;;;;4996550;28;20048;-65
2022/04/18 06:36:56;;;;;;;0.70;0.70;;;21.30;41.60;;;;;;4995012;28;21102;-64
2022/04/18 06:39:22;;;;;;;0.60;0.60;;;21.30;41.60;;;;;;4996867;28;20026;-61
2022/04/18 06:41:47;;;;;;;0.70;0.68;;;21.30;41.60;;;;;;4993591;28;20029;-60
2022/04/18 06:44:13;;;;;;;0.70;0.70;;;21.30;41.60;;;;;;4994787;28;20030;-61
2022/04/18 06:46:38;;;;;;;0.65;0.65;;;21.30;41.60;;;;;;4994994;28;20524;-65
2022/04/18 06:49:04;;;;;;;1.00;0.80;;;21.30;41.60;;;;;;4992516;28;20155;-61
2022/04/18 06:51:29;;;;;;;0.80;0.80;;;21.30;41.60;;;;;;4995384;28;20037;-64
2022/04/18 06:53:55;;;;;;;0.73;0.65;;;21.30;41.60;;;;;;4994376;28;21575;-64
2022/04/18 06:59:05;;;;;;;1.50;0.70;;;21.30;41.60;;;;;;4996065;28;20060;-61
2022/04/18 07:01:30;;;;;;;1.05;0.65;;;21.30;41.60;;;;;;4991110;28;20077;-64
2022/04/18 07:03:56;;;;;;;0.93;0.63;;;21.30;41.80;;;;;;4993809;28;20040;-64
2022/04/18 07:06:21;;;;;;;1.25;0.60;;;21.30;41.60;;;;;;4995784;28;20383;-65
2022/04/18 07:08:47;;;;;;;0.70;0.60;;;21.30;41.60;;;;;;4998320;28;20151;-64
2022/04/18 07:11:13;;;;;;;0.68;0.60;;;21.30;41.60;;;;;;4994168;28;20041;-64
2022/04/18 07:13:39;;;;;;;0.73;0.70;;;21.30;42.10;;;;;;4993400;28;20032;-63
2022/04/18 07:16:07;;;;;;;1.48;0.70;;;21.30;41.60;;;;;;4990989;28;20030;-64
2022/04/18 07:18:33;;;;;;;0.73;0.70;;;21.30;41.60;;;;;;4994675;28;20553;-64
2022/04/18 07:20:59;;;;;;;0.70;0.70;;;21.30;41.60;;;;;;4993256;28;20618;-64
2022/04/18 07:23:24;;;;;;;0.63;0.60;;;21.30;41.60;;;;;;4991830;28;20054;-65
2022/04/18 07:25:50;;;;;;;0.80;0.60;;;21.30;41.60;;;;;;4994887;28;20034;-64
2022/04/18 07:28:15;;;;;;;0.60;0.50;;;21.30;41.60;;;;;;4994095;28;20044;-64
2022/04/18 07:30:41;;;;;;;1.65;0.80;;;21.30;41.60;;;;;;4994521;28;20128;-64
2022/04/18 07:33:07;;;;;;;0.65;0.65;;;21.30;41.60;;;;;;4989665;28;20026;-64
2022/04/18 07:35:34;;;;;;;0.85;0.60;;;21.30;41.60;;;;;;4994286;28;20054;-65
2022/04/18 07:40:44;;;;;;;0.65;0.65;;;21.30;41.60;;;;;;4995386;28;20350;-64
2022/04/18 07:43:10;;;;;;;1.33;0.80;;;21.30;41.60;;;;;;4994556;28;20026;-64
2022/04/18 07:45:37;;;;;;;0.60;0.60;;;21.30;41.70;;;;;;4991638;28;20088;-65
2022/04/18 07:48:04;;;;;;;1.08;0.70;;;21.30;41.70;;;;;;4987992;28;20053;-63
2022/04/18 07:53:15;;;;;;;0.60;0.60;;;21.20;41.70;;;;;;4993478;28;20044;-62
2022/04/18 07:55:40;;;;;;;0.70;0.70;;;21.20;41.70;;;;;;4993943;28;20030;-64
2022/04/18 07:58:06;;;;;;;0.57;0.57;;;21.20;41.70;;;;;;4992593;28;20128;-65
2022/04/18 08:00:31;;;;;;;0.50;0.50;;;21.20;41.70;;;;;;4991986;28;20820;-64
2022/04/18 08:02:57;;;;;;;0.93;0.77;;;21.20;41.70;;;;;;4991179;28;20477;-61
2022/04/18 08:05:23;;;;;;;0.75;0.60;;;21.20;41.70;;;;;;4995031;28;20045;-64
2022/04/18 08:07:48;;;;;;;0.85;0.63;;;21.20;41.70;;;;;;4993125;28;20125;-64
2022/04/18 08:10:14;;;;;;;0.60;0.60;;;21.20;41.70;;;;;;4993427;28;20014;-65
2022/04/18 08:12:40;;;;;;;0.77;0.60;;;21.20;41.70;;;;;;4993902;28;20554;-60
2022/04/18 08:15:08;;;;;;;0.60;0.60;;;21.20;41.70;;;;;;4988634;28;20107;-64
2022/04/18 08:17:33;;;;;;;1.10;0.70;;;21.20;41.70;;;;;;4989874;28;20037;-64
2022/04/18 08:19:59;;;;;;;0.63;0.60;;;21.20;41.80;;;;;;4993889;28;20017;-61
2022/04/18 08:22:25;;;;;;;1.05;0.60;;;21.20;41.80;;;;;;4989833;28;21225;-64
2022/04/18 08:24:50;;;;;;;0.85;0.60;;;21.20;41.80;;;;;;4994373;28;20054;-64
2022/04/18 08:27:16;;;;;;;0.95;0.65;;;21.10;41.70;;;;;;4991985;28;20119;-64
2022/04/18 08:29:41;;;;;;;1.02;0.70;;;21.10;41.70;;;;;;4989310;28;20037;-63
2022/04/18 08:32:08;;;;;;;1.27;0.70;;;21.10;41.80;;;;;;4990019;28;20034;-61
2022/04/18 08:34:33;;;;;;;0.88;0.70;;;21.10;41.80;;;;;;4993388;28;20030;-64
2022/04/18 08:36:59;;;;;;;0.95;0.70;;;21.10;41.80;;;;;;4990334;28;20037;-61
2022/04/18 08:39:26;;;;;;;1.00;0.80;;;21.10;41.90;;;;;;4994627;28;20036;-62
2022/04/18 08:41:57;;;;;;;0.80;0.63;;;21.10;41.80;;;;;;4992945;28;20487;-63
2022/04/18 08:44:25;;;;;;;0.77;0.63;;;21.10;41.80;;;;;;4994437;28;20095;-65
2022/04/18 08:46:52;;;;;;;1.00;0.70;;;21.10;41.80;;;;;;4991113;28;20025;-64
2022/04/18 08:52:43;;;;;;;0.60;0.60;;;21.10;41.80;;;;;;4983459;28;20041;-63
2022/04/18 08:54:57;;;;;;;1.55;0.90;;;21.10;41.80;;;;;;4992974;28;20050;-64
2022/04/18 08:57:23;;;;;;;0.80;0.70;;;21.10;41.80;;;;;;4993057;28;20068;-64
2022/04/18 08:59:48;;;;;;;1.02;0.73;;;21.10;41.80;;;;;;4992499;28;20050;-63
2022/04/18 09:02:14;;;;;;;1.30;0.80;;;21.10;41.80;;;;;;4987961;28;20721;-65
2022/04/18 09:04:39;;;;;;;0.68;0.65;;;21.10;41.80;;;;;;4994278;28;20014;-64
2022/04/18 09:07:12;;;;;;;0.70;0.60;;;21.10;41.80;;;;;;4991049;28;20156;-63
2022/04/18 09:09:39;;;;;;;0.98;0.60;;;21.10;41.80;;;;;;4992971;28;20053;-64
2022/04/18 09:12:29;;;;;;;1.90;0.77;;;21.10;41.80;;;;;;4991235;28;20036;-64
2022/04/18 09:14:55;;;;;;;1.30;0.70;;;21.10;41.80;;;;;;4990222;28;20029;-65
2022/04/18 09:17:32;;;;;;;1.17;0.90;;;21.10;41.90;;;;;;4988625;28;20034;-61
2022/04/18 09:20:04;;;;;;;1.30;0.73;;;21.10;41.80;;;;;;4993165;28;20040;-65
2022/04/18 09:22:30;;;;;;;1.00;0.68;;;21.10;42.40;;;;;;4984966;28;20113;-64
2022/04/18 09:24:55;;;;;;;1.00;0.70;;;21.10;41.80;;;;;;4992810;28;20100;-65
2022/04/18 09:27:27;;;;;;;0.70;0.70;;;21.10;41.80;;;;;;4990811;28;20102;-65
2022/04/18 09:30:07;;;;;;;0.70;0.60;;;21.10;41.80;;;;;;4992434;28;20056;-64
2022/04/18 09:32:33;;;;;;;0.95;0.68;;;21.10;41.80;;;;;;4984641;28;20633;-63
2022/04/18 09:35:01;;;;;;;0.95;0.70;;;21.10;41.80;;;;;;4987882;28;20037;-63
2022/04/18 09:37:29;;;;;;;1.17;0.70;;;21.10;41.80;;;;;;4989352;28;20441;-64
2022/04/18 09:39:55;;;;;;;1.20;0.70;;;21.10;41.80;;;;;;4989410;28;20545;-61
2022/04/18 09:42:23;;;;;;;1.55;0.70;;;21.10;41.80;;;;;;4986215;28;20491;-64
2022/04/18 09:44:49;;;;;;;1.35;0.70;;;21.10;42.40;;;;;;4986598;28;20065;-65
2022/04/18 09:47:19;;;;;;;1.30;0.82;;;21.10;41.80;;;;;;4987648;28;20026;-62
2022/04/18 09:49:46;;;;;;;0.77;0.70;;;21.10;41.80;;;;;;4989325;28;20573;-64
2022/04/18 09:52:15;;;;;;;1.15;0.80;;;21.10;41.80;;;;;;4985205;28;20026;-65
2022/04/18 09:54:58;;;;;;;2.25;0.82;;;21.10;41.80;;;;;;4987512;28;20080;-64
2022/04/18 09:57:28;;;;;;;0.82;0.70;;;21.10;41.80;;;;;;4988352;28;20029;-62
2022/04/18 09:59:57;;;;;;;1.40;0.90;;;21.10;41.90;;;;;;4990200;28;20502;-64
2022/04/18 10:02:24;;;;;;;1.70;0.70;;;21.10;42.10;;;;;;4984660;28;20420;-64
2022/04/18 10:04:51;;;;;;;1.60;0.80;;;21.10;42.00;;;;;;4988346;28;20384;-65
2022/04/18 10:07:17;;;;;;;1.52;0.85;;;21.10;42.00;;;;;;4987645;28;20030;-65
2022/04/18 10:09:43;;;;;;;1.00;0.70;;;21.10;42.00;;;;;;4992009;28;20487;-64
2022/04/18 10:12:11;;;;;;;1.23;0.80;;;21.10;42.10;;;;;;4989009;28;20061;-65
2022/04/18 10:14:38;;;;;;;1.58;0.93;;;21.10;42.10;;;;;;4990498;28;20483;-62
2022/04/18 10:17:06;;;;;;;1.52;0.90;;;21.10;42.10;;;;;;4988175;28;20394;-65
2022/04/18 10:20:14;;;;;;;2.58;0.80;;;21.10;42.10;;;;;;4987284;28;20034;-66
2022/04/18 10:22:51;;;;;;;1.38;0.80;;;21.10;42.10;;;;;;4965034;28;20069;-65
2022/04/18 10:25:35;;;;;;;2.05;0.90;;;21.20;42.20;;;;;;4989446;28;20028;-62
2022/04/18 10:28:14;;;;;;;1.42;0.70;;;21.20;42.20;;;;;;4991438;28;20722;-64
2022/04/18 10:30:45;;;;;;;2.15;1.25;;;21.20;42.20;;;;;;4987038;28;20522;-65
2022/04/18 10:33:13;;;;;;;1.75;0.80;;;21.20;42.70;;;;;;4987736;28;20040;-61
2022/04/18 10:36:00;;;;;;;1.40;0.90;;;21.20;42.10;;;;;;4993593;28;20033;-65
2022/04/18 10:38:26;;;;;;;0.98;0.68;;;21.20;42.10;;;;;;4994495;28;20296;-61
2022/04/18 10:41:14;;;;;;;1.55;0.80;;;21.20;42.10;;;;;;4993570;28;20467;-63
2022/04/18 10:43:58;;;;;;;1.70;0.90;;;21.20;42.10;;;;;;4990646;28;20072;-65
2022/04/18 10:46:24;;;;;;;1.75;1.02;;;21.20;42.10;;;;;;4992367;28;20053;-65
2022/04/18 10:49:00;;;;;;;1.55;0.82;;;21.20;42.00;;;;;;4992177;28;20037;-65
2022/04/18 10:51:39;;;;;;;1.45;0.80;;;21.20;42.00;;;;;;4991716;28;20084;-62
2022/04/18 10:54:06;;;;;;;;;;;21.20;42.00;;;;;;4989992;28;20042;-62
2022/04/18 10:57:01;;;;;;;1.27;0.75;;;21.20;42.00;;;;;;4991047;28;19996;-62
2022/04/18 10:59:27;;;;;;;1.90;1.00;;;21.20;42.00;;;;;;4990394;28;20064;-64
2022/04/18 11:01:55;;;;;;;1.42;0.75;;;21.20;42.00;;;;;;4989651;28;20046;-63
2022/04/18 11:04:29;;;;;;;1.25;0.85;;;21.20;42.00;;;;;;4990577;28;20466;-64
2022/04/18 11:07:06;;;;;;;1.17;0.80;;;21.20;42.00;;;;;;4992437;28;20049;-64
2022/04/18 11:09:36;;;;;;;0.85;0.70;;;21.20;42.00;;;;;;4990474;28;20038;-64
2022/04/18 11:12:05;;;;;;;1.42;0.77;;;21.20;42.00;;;;;;4990861;28;20053;-64
2022/04/18 11:14:55;;;;;;;1.42;0.80;;;21.20;42.00;;;;;;4992969;28;20659;-64
2022/04/18 11:17:40;;;;;;;1.20;0.80;;;21.20;42.00;;;;;;4982770;28;20117;-62
2022/04/18 11:20:37;;;;;;;0.93;0.60;;;21.20;42.00;;;;;;4991803;28;20204;-65
2022/04/18 11:23:28;;;;;;;1.23;0.85;;;21.20;42.00;;;;;;4992477;28;20033;-65
2022/04/18 11:26:01;;;;;;;1.98;0.80;;;21.20;42.00;;;;;;4990820;28;20584;-65
2022/04/18 11:28:36;;;;;;;1.35;0.80;;;21.20;42.00;;;;;;4991907;28;20018;-65
2022/04/18 11:31:17;;;;;;;0.82;0.73;;;21.20;42.00;;;;;;4990743;28;20694;-65
2022/04/18 11:33:43;;;;;;;1.25;0.80;;;21.20;42.00;;;;;;4983804;28;20478;-65
2022/04/18 11:36:11;;;;;;;1.75;0.90;;;21.20;42.00;;;;;;4983191;28;20025;-63
2022/04/18 11:38:37;;;;;;;1.70;0.90;;;21.20;42.00;;;;;;4987212;28;20728;-64
2022/04/18 11:41:15;;;;;;;1.67;0.70;;;21.20;42.00;;;;;;4989063;28;20030;-66
2022/04/18 11:43:41;;;;;;;0.98;0.80;;;21.30;42.10;;;;;;4987540;28;20652;-63
2022/04/18 11:46:09;;;;;;;1.55;0.93;;;21.20;42.00;;;;;;4988742;28;20044;-65
2022/04/18 11:48:36;;;;;;;1.40;1.02;;;21.20;42.00;;;;;;4990050;28;20156;-65
2022/04/18 11:51:03;;;;;;;1.17;0.80;;;21.30;42.00;;;;;;4988885;28;20034;-62
2022/04/18 11:53:33;;;;;;;1.40;0.77;;;21.30;42.00;;;;;;4988218;28;20173;-65
2022/04/18 11:56:03;;;;;;;1.23;0.70;;;21.30;42.00;;;;;;4989036;28;20037;-65
2022/04/18 11:58:35;;;;;;;1.65;0.70;;;21.20;42.00;;;;;;4988252;28;20180;-64
2022/04/18 12:06:46;;;;;;;1.65;0.90;;;21.30;42.00;;;;;;4984749;28;20047;-66
2022/04/18 12:09:14;;;;;;;2.67;0.73;;;21.30;42.00;;;;;;4985936;28;20038;-65
2022/04/18 12:11:40;;;;;;;1.08;0.75;;;21.20;42.00;;;;;;4983983;28;20022;-66
2022/04/18 12:14:06;;;;;;;1.88;0.90;;;21.30;42.00;;;;;;4986490;28;20053;-65
2022/04/18 12:16:36;;;;;;;1.35;0.80;;;21.30;42.00;;;;;;4985763;28;20232;-65
2022/04/18 12:19:02;;;;;;;1.10;0.75;;;21.30;42.10;;;;;;4985988;28;20096;-64
2022/04/18 12:21:28;;;;;;;1.30;0.80;;;21.30;42.10;;;;;;4985442;28;20018;-66
2022/04/18 12:23:55;;;;;;;1.10;0.70;;;21.30;42.10;;;;;;4986104;28;20092;-65
2022/04/18 12:26:27;;;;;;;1.20;0.80;;;21.30;42.10;;;;;;4987796;28;20124;-64
2022/04/18 12:29:08;;;;;;;1.05;0.80;;;21.30;42.10;;;;;;5002544;28;20041;-65
2022/04/18 12:31:41;;;;;;;0.98;0.70;;;21.30;42.10;;;;;;4984467;28;20034;-64
2022/04/18 12:34:15;;;;;;;2.05;0.80;;;21.30;42.10;;;;;;4982101;28;20832;-65
2022/04/18 12:36:40;;;;;;;0.75;0.70;;;21.30;42.10;;;;;;4979899;28;20052;-64
2022/04/18 12:39:06;;;;;;;2.17;0.70;;;21.40;42.70;;;;;;4981993;28;20021;-64
2022/04/18 12:41:38;;;;;;;1.10;0.70;;;21.40;43.10;;;;;;4983089;28;20029;-63
2022/04/18 12:44:13;;;;;;;1.38;0.88;;;21.40;43.50;;;;;;4983638;28;20040;-64
2022/04/18 12:46:40;;;;;;;0.70;0.68;;;21.40;43.40;;;;;;4981365;28;20166;-64
2022/04/18 12:49:08;;;;;;;0.88;0.55;;;21.50;43.00;;;;;;4983821;28;20823;-62
2022/04/18 12:51:40;;;;;;;1.83;0.80;;;21.50;42.60;;;;;;4983979;28;20386;-64
2022/04/18 12:54:19;;;;;;;2.45;0.80;;;21.60;42.40;;;;;;4980304;28;20033;-65
2022/04/18 12:56:46;;;;;;;0.73;0.55;;;21.60;42.30;;;;;;4981992;28;20025;-64
2022/04/18 12:59:14;;;;;;;1.30;0.75;;;21.70;42.10;;;;;;4981215;28;20109;-66
2022/04/18 13:01:40;;;;;;;1.45;0.70;;;21.70;41.90;;;;;;4979627;28;20180;-65
2022/04/18 13:04:19;;;;;;;1.30;0.60;;;21.80;41.90;;;;;;4982298;28;20052;-65
2022/04/18 13:07:03;;;;;;;1.05;0.70;;;21.80;41.80;;;;;;4981906;28;20814;-64
2022/04/18 13:09:30;;;;;;;0.95;0.68;;;21.80;41.70;;;;;;4981733;28;20076;-63
2022/04/18 13:12:08;;;;;;;1.05;0.70;;;21.90;41.70;;;;;;4983841;28;20124;-65
2022/04/18 13:14:54;;;;;;;1.73;0.80;;;21.90;41.60;;;;;;4977910;28;20064;-64
2022/04/18 13:17:19;;;;;;;1.38;0.80;;;22.00;41.60;;;;;;4980238;28;20041;-64